ORBI/SDA METAR and TAF weather

Enter ICAO airport designator
Station Type Date Time Source
ORBI METAR 2021/02/27 03:00 UTC NOAA

ORBI 270300Z 28004KT CAVOK 08/M01 Q1018 NOSIG


Station Type Date Time Source
ORBI Decoded METAR 2021/02/27 03:00 UTC NOAA

Station name not available
Feb 26, 2021 - 10:00 PM EST / 2021.02.27 0300 UTC
Wind: from the W (280 degrees) at 5 MPH (4 KT):0
Visibility: greater than 7 mile(s):0
Temperature: 46 F (8 C)
Dew Point: 30 F (-1 C)
Relative Humidity: 52%
Pressure (altimeter): 30.06 in. Hg (1018 hPa)
ob: ORBI 270300Z 28004KT CAVOK 08/M01 Q1018 NOSIG
cycle: 3

Station Type Date Time Source
ORBI TAF 2021/02/26 18:18 UTC NOAA

TAF ORBI 261600Z 2618/2718 32007KT CAVOK

Example: see airport list